Time;durP1;ratioP1;P1;durP2;ratioP2;P2;SDS_P1;SDS_P2;PMS_P1;PMS_P2;Temp;Humidity;BMP_temperature;BMP_pressure;BME280_temperature;BME280_humidity;BME280_pressure;Samples;Min_cycle;Max_cycle;Signal;HPM_P1;HPM_P2
2023/12/29 00:01:18;;;;;;;30.73;5.72;;;;;;;;;;4926904;29;20593;-73
2023/12/29 00:03:44;;;;;;;26.23;5.65;;;;;;;;;;4923002;29;20488;-74
2023/12/29 00:06:10;;;;;;;23.95;5.18;;;;;;;;;;4918630;29;20564;-73
2023/12/29 00:08:39;;;;;;;30.20;5.43;;;10.10;99.90;;;;;;4887992;29;20135;-73
2023/12/29 00:11:05;;;;;;;22.17;4.43;;;;;;;;;;4924244;29;20039;-73
2023/12/29 00:13:31;;;;;;;24.95;5.75;;;;;;;;;;4931206;29;20480;-73
2023/12/29 00:15:57;;;;;;;25.77;4.45;;;;;;;;;;4934948;29;20038;-73
2023/12/29 00:18:24;;;;;;;29.67;4.45;;;;;;;;;;4935369;29;20492;-74
2023/12/29 00:20:50;;;;;;;26.17;4.57;;;;;;;;;;4926470;29;20544;-73
2023/12/29 00:23:16;;;;;;;23.92;4.63;;;;;;;;;;4919064;29;20055;-74
2023/12/29 00:25:42;;;;;;;26.40;4.60;;;;;;;;;;4918277;29;20500;-74
2023/12/29 00:28:08;;;;;;;28.70;4.63;;;;;;;;;;4918421;29;20099;-73
2023/12/29 00:30:38;;;;;;;23.98;3.88;;;;;;;;;;4902485;29;20044;-74
2023/12/29 00:33:04;;;;;;;21.70;4.00;;;;;;;;;;4920423;29;20480;-74
2023/12/29 00:35:30;;;;;;;23.60;4.50;;;;;;;;;;4916914;29;20391;-74
2023/12/29 00:37:56;;;;;;;21.65;3.58;;;;;;;;;;4894867;29;20119;-76
2023/12/29 00:40:22;;;;;;;24.65;4.97;;;;;;;;;;4931494;29;20051;-76
2023/12/29 00:42:48;;;;;;;24.27;3.55;;;;;;;;;;4897904;29;20047;-76
2023/12/29 00:45:15;;;;;;;22.02;3.97;;;;;;;;;;4917013;29;20094;-76
2023/12/29 00:47:41;;;;;;;23.30;4.43;;;;;;;;;;4937424;29;20112;-76
2023/12/29 00:50:07;;;;;;;22.75;3.78;;;;;;;;;;4915671;29;20058;-76
2023/12/29 00:52:33;;;;;;;22.05;3.55;;;;;;;;;;4931371;29;20035;-76
2023/12/29 00:54:59;;;;;;;25.48;4.40;;;;;;;;;;4933030;29;20039;-77
2023/12/29 00:57:25;;;;;;;23.40;4.07;;;;;;;;;;4930002;29;20503;-76
2023/12/29 00:59:51;;;;;;;20.27;4.20;;;;;;;;;;4922680;29;20373;-76
2023/12/29 01:02:17;;;;;;;23.13;4.25;;;;;;;;;;4926738;29;20048;-76
2023/12/29 01:04:44;;;;;;;21.00;4.07;;;;;;;;;;4930440;29;20039;-76
2023/12/29 01:07:10;;;;;;;19.10;3.38;;;;;;;;;;4938409;29;20039;-73
2023/12/29 01:09:40;;;;;;;18.63;3.47;;;10.20;99.90;;;;;;4937864;29;20058;-76
2023/12/29 01:12:06;;;;;;;24.60;3.88;;;;;;;;;;4935379;29;20032;-76
2023/12/29 01:14:32;;;;;;;19.23;3.38;;;;;;;;;;4920817;29;20433;-76
2023/12/29 01:16:58;;;;;;;23.40;4.35;;;;;;;;;;4921287;29;20035;-76
2023/12/29 01:19:24;;;;;;;25.17;3.95;;;;;;;;;;4937931;29;20047;-74
2023/12/29 01:21:50;;;;;;;20.88;4.18;;;;;;;;;;4937634;29;20051;-74
2023/12/29 01:24:16;;;;;;;14.75;2.90;;;;;;;;;;4932802;29;20043;-73
2023/12/29 01:26:42;;;;;;;20.98;3.60;;;;;;;;;;4916510;29;20042;-78
2023/12/29 01:29:08;;;;;;;25.88;4.22;;;;;;;;;;4929903;29;20523;-78
2023/12/29 01:31:34;;;;;;;23.88;4.35;;;;;;;;;;4933424;29;20042;-80
2023/12/29 01:34:00;;;;;;;22.98;3.55;;;;;;;;;;4929411;29;20130;-80
2023/12/29 01:36:27;;;;;;;32.53;4.57;;;;;;;;;;4928683;29;20047;-79
2023/12/29 01:38:53;;;;;;;24.35;4.22;;;;;;;;;;4926489;29;20062;-78
2023/12/29 01:41:22;;;;;;;27.40;4.10;;;;;;;;;;4936920;29;20074;-78
2023/12/29 01:43:57;;;;;;;22.73;3.85;;;;;;;;;;4933847;29;20043;-77
2023/12/29 01:46:29;;;;;;;17.40;4.10;;;10.00;99.90;;;;;;4936372;29;20043;-78
2023/12/29 01:48:55;;;;;;;17.43;3.03;;;;;;;;;;4910362;29;20043;-78
2023/12/29 01:51:25;;;;;;;19.02;4.03;;;10.10;99.90;;;;;;4930260;29;20275;-77
2023/12/29 01:53:52;;;;;;;18.40;3.72;;;;;;;;;;4925856;29;20043;-78
2023/12/29 01:56:18;;;;;;;14.82;2.95;;;;;;;;;;4892156;29;20063;-77
2023/12/29 01:58:45;;;;;;;19.33;2.92;;;;;;;;;;4937981;29;20043;-78
2023/12/29 02:01:11;;;;;;;20.40;3.28;;;10.10;99.90;;;;;;4905576;29;20039;-78
2023/12/29 02:03:38;;;;;;;20.48;3.97;;;;;;;;;;4929589;29;20139;-78
2023/12/29 02:06:04;;;;;;;21.67;3.42;;;;;;;;;;4925389;29;20074;-78
2023/12/29 02:08:30;;;;;;;14.98;3.13;;;;;;;;;;4932650;29;20131;-80
2023/12/29 02:10:56;;;;;;;19.05;3.65;;;;;;;;;;4906158;29;20127;-80
2023/12/29 02:13:22;;;;;;;15.80;2.88;;;;;;;;;;4932928;29;20032;-80
2023/12/29 02:15:51;;;;;;;15.68;3.05;;;;;;;;;;4929470;29;20042;-80
2023/12/29 02:18:18;;;;;;;23.95;4.43;;;9.90;99.90;;;;;;4912653;29;20074;-78
2023/12/29 02:20:44;;;;;;;22.92;5.03;;;;;;;;;;4927897;29;20090;-78
2023/12/29 02:23:10;;;;;;;21.70;3.75;;;;;;;;;;4921410;29;20051;-78
2023/12/29 02:25:37;;;;;;;19.70;3.63;;;;;;;;;;4930095;29;20582;-80
2023/12/29 02:28:06;;;;;;;29.65;4.47;;;;;;;;;;4914456;29;20042;-80
2023/12/29 02:30:47;;;;;;;23.95;3.95;;;;;;;;;;4934278;29;20039;-80
2023/12/29 02:33:17;;;;;;;28.02;4.28;;;;;;;;;;4933868;29;20035;-80
2023/12/29 02:35:44;;;;;;;28.02;4.00;;;;;;;;;;4907410;29;20061;-80
2023/12/29 02:38:11;;;;;;;25.88;5.07;;;;;;;;;;4930574;29;20046;-80
2023/12/29 02:40:37;;;;;;;22.42;3.92;;;;;;;;;;4925691;29;20054;-80
2023/12/29 02:43:03;;;;;;;28.73;4.53;;;;;;;;;;4931920;29;20039;-80
2023/12/29 02:45:29;;;;;;;25.83;3.85;;;;;;;;;;4924300;29;20063;-80
2023/12/29 02:47:55;;;;;;;32.85;5.18;;;;;;;;;;4925098;29;20049;-80
2023/12/29 02:50:22;;;;;;;28.33;5.43;;;;;;;;;;4935002;29;20503;-77
2023/12/29 02:52:48;;;;;;;28.55;4.65;;;;;;;;;;4920739;29;20043;-78
2023/12/29 02:55:14;;;;;;;29.75;4.20;;;;;;;;;;4910191;29;20100;-77
2023/12/29 02:57:40;;;;;;;31.33;4.88;;;;;;;;;;4937362;29;20069;-78
2023/12/29 03:00:06;;;;;;;31.70;5.00;;;;;;;;;;4914198;29;20048;-78
2023/12/29 03:02:32;;;;;;;26.70;4.22;;;;;;;;;;4920768;28;20047;-78
2023/12/29 03:04:59;;;;;;;28.08;4.35;;;;;;;;;;4933249;29;21622;-78
2023/12/29 03:07:25;;;;;;;29.70;4.47;;;;;;;;;;4924880;29;20057;-78
2023/12/29 03:09:51;;;;;;;21.95;4.43;;;;;;;;;;4933432;29;20043;-78
2023/12/29 03:12:17;;;;;;;27.17;4.28;;;;;;;;;;4935216;29;20398;-78
2023/12/29 03:14:44;;;;;;;23.20;3.55;;;;;;;;;;4922234;29;20040;-78
2023/12/29 03:17:11;;;;;;;28.25;4.90;;;;;;;;;;4918472;29;20385;-81
2023/12/29 03:19:37;;;;;;;25.75;4.75;;;;;;;;;;4932065;29;20043;-80
2023/12/29 03:22:03;;;;;;;31.10;4.30;;;;;;;;;;4934945;29;20058;-80
2023/12/29 03:24:29;;;;;;;29.20;3.97;;;;;;;;;;4932007;29;20073;-80
2023/12/29 03:26:56;;;;;;;24.90;4.68;;;;;;;;;;4925139;29;20039;-80
2023/12/29 03:29:22;;;;;;;26.45;3.90;;;;;;;;;;4920944;29;20039;-80
2023/12/29 03:31:48;;;;;;;24.23;4.32;;;;;;;;;;4916835;29;20035;-78
2023/12/29 03:34:15;;;;;;;22.88;3.42;;;;;;;;;;4905729;29;20043;-78
2023/12/29 03:36:41;;;;;;;22.45;3.72;;;;;;;;;;4935641;29;20046;-78
2023/12/29 03:39:07;;;;;;;25.63;4.55;;;;;;;;;;4912469;29;20050;-78
2023/12/29 03:41:33;;;;;;;22.15;3.80;;;;;;;;;;4919868;29;20078;-76
2023/12/29 03:43:59;;;;;;;19.10;4.93;;;;;;;;;;4902919;29;20051;-73
2023/12/29 03:46:25;;;;;;;19.92;3.47;;;;;;;;;;4898470;28;20034;-74
2023/12/29 03:48:53;;;;;;;22.48;3.30;;;;;;;;;;4932629;29;20039;-78
2023/12/29 03:51:19;;;;;;;21.92;3.63;;;;;;;;;;4926019;29;20094;-80
2023/12/29 03:53:45;;;;;;;22.65;4.20;;;;;;;;;;4928470;29;20064;-78
2023/12/29 03:56:18;;;;;;;26.27;3.92;;;;;;;;;;4926670;29;20066;-78
2023/12/29 03:58:48;;;;;;;29.58;4.40;;;;;;;;;;4933414;29;20118;-78
2023/12/29 04:01:15;;;;;;;22.40;4.93;;;;;;;;;;4928686;29;20144;-78
2023/12/29 04:03:41;;;;;;;16.85;3.30;;;;;;;;;;4926169;29;20048;-78
2023/12/29 04:06:08;;;;;;;17.77;3.55;;;;;;;;;;4926444;29;20496;-78
2023/12/29 04:08:34;;;;;;;21.98;4.57;;;;;;;;;;4921159;29;20047;-78
2023/12/29 04:11:00;;;;;;;22.00;3.55;;;;;;;;;;4925848;29;20522;-78
2023/12/29 04:13:27;;;;;;;26.38;4.00;;;;;;;;;;4924301;28;20040;-81
2023/12/29 04:15:53;;;;;;;21.63;3.22;;;;;;;;;;4930428;29;20046;-80
2023/12/29 04:18:22;;;;;;;17.77;3.75;;;;;;;;;;4938214;29;20179;-76
2023/12/29 04:20:48;;;;;;;20.95;4.32;;;;;;;;;;4927398;29;20039;-76
2023/12/29 04:23:15;;;;;;;21.70;3.53;;;;;;;;;;4936095;29;20106;-76
2023/12/29 04:25:41;;;;;;;30.98;3.67;;;;;;;;;;4939108;29;20851;-76
2023/12/29 04:28:08;;;;;;;19.02;4.45;;;;;;;;;;4923019;29;20496;-76
2023/12/29 04:30:34;;;;;;;21.73;4.45;;;;;;;;;;4937946;29;20035;-74
2023/12/29 04:33:00;;;;;;;20.15;4.07;;;;;;;;;;4938737;29;20039;-76
2023/12/29 04:35:26;;;;;;;24.55;3.45;;;;;;;;;;4938774;29;20078;-76
2023/12/29 04:37:53;;;;;;;26.45;5.20;;;;;;;;;;4937623;29;20039;-76
2023/12/29 04:40:19;;;;;;;27.73;5.13;;;;;;;;;;4904893;29;20039;-76
2023/12/29 04:42:45;;;;;;;19.05;3.60;;;;;;;;;;4932877;29;20078;-76
2023/12/29 04:45:11;;;;;;;25.85;3.30;;;;;;;;;;4906277;29;20123;-76
2023/12/29 04:47:38;;;;;;;23.95;5.18;;;;;;;;;;4927925;29;20082;-74
2023/12/29 04:50:05;;;;;;;22.52;3.17;;;;;;;;;;4921743;29;20044;-76
2023/12/29 04:52:31;;;;;;;24.00;4.40;;;;;;;;;;4912277;29;20210;-77
2023/12/29 04:54:57;;;;;;;21.52;3.75;;;;;;;;;;4938709;29;20377;-76
2023/12/29 04:57:23;;;;;;;18.40;3.30;;;;;;;;;;4932502;29;20127;-76
2023/12/29 04:59:50;;;;;;;20.63;3.47;;;;;;;;;;4938576;29;20072;-76
2023/12/29 05:02:16;;;;;;;21.88;3.35;;;;;;;;;;4929762;29;20063;-76
2023/12/29 05:04:42;;;;;;;18.38;3.97;;;;;;;;;;4936809;29;20047;-76
2023/12/29 05:07:09;;;;;;;23.20;5.15;;;;;;;;;;4934596;29;20047;-75
2023/12/29 05:09:35;;;;;;;32.17;3.90;;;;;;;;;;4894248;29;20039;-76
2023/12/29 05:12:01;;;;;;;29.92;4.30;;;;;;;;;;4920252;28;20124;-76
2023/12/29 05:14:27;;;;;;;19.60;3.83;;;;;;;;;;4934863;29;20408;-76
2023/12/29 05:16:53;;;;;;;23.38;3.90;;;;;;;;;;4937904;29;20039;-74
2023/12/29 05:19:19;;;;;;;20.85;3.85;;;;;;;;;;4937728;29;20418;-73
2023/12/29 05:21:46;;;;;;;25.05;4.00;;;;;;;;;;4922006;29;20051;-76
2023/12/29 05:24:12;;;;;;;31.20;4.22;;;;;;;;;;4929781;29;20125;-76
2023/12/29 05:26:38;;;;;;;25.00;3.90;;;;;;;;;;4910457;29;20120;-76
2023/12/29 05:29:04;;;;;;;20.35;4.00;;;;;;;;;;4932712;29;20086;-73
2023/12/29 05:31:30;;;;;;;25.65;3.97;;;;;;;;;;4918746;29;20047;-74
2023/12/29 05:33:57;;;;;;;20.02;3.80;;;;;;;;;;4931010;29;20031;-74
2023/12/29 05:36:23;;;;;;;29.10;3.47;;;;;;;;;;4928166;29;20554;-74
2023/12/29 05:38:49;;;;;;;25.20;4.13;;;;;;;;;;4935467;29;20141;-74
2023/12/29 05:41:15;;;;;;;26.85;4.05;;;;;;;;;;4938031;29;20042;-74
2023/12/29 05:43:41;;;;;;;20.00;5.03;;;;;;;;;;4903781;29;20126;-73
2023/12/29 05:46:13;;;;;;;25.45;3.92;;;;;;;;;;4919386;29;20094;-74
2023/12/29 05:48:39;;;;;;;;;;;9.70;99.90;;;;;;4936892;29;20051;-74
2023/12/29 05:51:09;;;;;;;28.25;5.35;;;;;;;;;;4903793;29;19925;-74
2023/12/29 05:53:35;;;;;;;30.00;4.65;;;10.30;99.90;;;;;;4936320;29;20125;-74
2023/12/29 05:56:01;;;;;;;21.98;4.50;;;;;;;;;;4932123;29;20079;-74
2023/12/29 05:58:27;;;;;;;22.15;4.57;;;;;;;;;;4922458;29;20055;-77
2023/12/29 06:00:55;;;;;;;17.27;3.00;;;9.70;99.90;;;;;;4931158;29;20039;-76
2023/12/29 06:03:22;;;;;;;18.02;3.55;;;;;;;;;;4909920;29;20036;-77
2023/12/29 06:05:49;;;;;;;22.23;4.35;;;;;;;;;;4936352;29;20121;-78
2023/12/29 06:08:15;;;;;;;23.27;5.07;;;;;;;;;;4911709;28;20039;-78
2023/12/29 06:10:41;;;;;;;25.05;5.10;;;;;;;;;;4936272;29;20074;-76
2023/12/29 06:13:07;;;;;;;27.80;3.90;;;;;;;;;;4937753;29;20047;-77
2023/12/29 06:15:33;;;;;;;31.15;5.10;;;;;;;;;;4934548;29;20035;-76
2023/12/29 06:17:59;;;;;;;34.13;4.22;;;;;;;;;;4934601;29;20043;-77
2023/12/29 06:20:26;;;;;;;28.23;4.13;;;;;;;;;;4935992;29;20134;-77
2023/12/29 06:22:52;;;;;;;24.17;4.13;;;;;;;;;;4935204;29;20110;-79
2023/12/29 06:25:18;;;;;;;20.75;3.78;;;;;;;;;;4933248;29;20046;-78
2023/12/29 06:27:44;;;;;;;26.00;4.55;;;;;;;;;;4930830;29;20079;-78
2023/12/29 06:30:10;;;;;;;21.50;3.90;;;;;;;;;;4925455;29;20507;-78
2023/12/29 06:32:37;;;;;;;22.30;4.07;;;;;;;;;;4921608;29;20035;-78
2023/12/29 06:35:03;;;;;;;21.23;3.95;;;;;;;;;;4922614;29;20126;-76
2023/12/29 06:37:29;;;;;;;27.00;3.92;;;;;;;;;;4927208;29;20035;-75
2023/12/29 06:39:55;;;;;;;26.33;4.68;;;;;;;;;;4924963;29;20047;-76
2023/12/29 06:42:22;;;;;;;23.13;3.78;;;;;;;;;;4924928;29;20043;-75
2023/12/29 06:44:48;;;;;;;26.48;3.65;;;;;;;;;;4919529;29;20047;-75
2023/12/29 06:47:15;;;;;;;22.65;3.60;;;;;;;;;;4927751;29;20043;-75
2023/12/29 06:49:41;;;;;;;27.75;4.40;;;;;;;;;;4904831;28;20508;-75
2023/12/29 06:52:07;;;;;;;25.25;3.80;;;;;;;;;;4920237;29;20150;-75
2023/12/29 06:54:34;;;;;;;26.38;4.18;;;;;;;;;;4919393;29;20044;-76
2023/12/29 06:57:00;;;;;;;28.98;4.47;;;;;;;;;;4913783;29;20130;-75
2023/12/29 06:59:26;;;;;;;31.67;5.57;;;;;;;;;;4927118;29;20110;-76
2023/12/29 07:01:53;;;;;;;24.00;4.38;;;;;;;;;;4913174;29;20097;-78
2023/12/29 07:04:19;;;;;;;23.75;4.78;;;;;;;;;;4922367;29;20051;-75
2023/12/29 07:06:45;;;;;;;31.58;4.05;;;;;;;;;;4909797;29;20064;-78
2023/12/29 07:09:11;;;;;;;27.15;4.20;;;;;;;;;;4924648;29;20082;-78
2023/12/29 07:11:37;;;;;;;22.27;3.40;;;;;;;;;;4931899;29;20047;-78
2023/12/29 07:14:03;;;;;;;25.10;4.13;;;;;;;;;;4903471;29;20043;-78
2023/12/29 07:16:30;;;;;;;23.42;4.00;;;;;;;;;;4939237;29;20040;-75
2023/12/29 07:18:56;;;;;;;30.35;4.28;;;;;;;;;;4919267;29;20040;-80
2023/12/29 07:21:22;;;;;;;21.73;3.33;;;;;;;;;;4919592;29;20485;-81
2023/12/29 07:23:48;;;;;;;27.33;3.95;;;;;;;;;;4919112;29;20060;-82
2023/12/29 07:26:14;;;;;;;29.00;3.97;;;;;;;;;;4918846;29;20058;-82
2023/12/29 07:28:40;;;;;;;26.85;3.53;;;;;;;;;;4891563;29;20050;-80
2023/12/29 07:31:07;;;;;;;25.13;4.80;;;;;;;;;;4902611;29;20087;-81
2023/12/29 07:33:34;;;;;;;23.17;4.65;;;;;;;;;;4901888;29;20111;-80
2023/12/29 07:36:00;;;;;;;25.67;4.15;;;;;;;;;;4918166;29;20047;-80
2023/12/29 07:38:26;;;;;;;24.08;3.67;;;;;;;;;;4906440;29;20035;-78
2023/12/29 07:40:52;;;;;;;31.88;4.18;;;;;;;;;;4927910;29;20044;-78
2023/12/29 07:43:19;;;;;;;25.10;4.80;;;;;;;;;;4903023;29;20074;-78
2023/12/29 07:45:45;;;;;;;23.60;4.40;;;;;;;;;;4918670;29;20043;-75
2023/12/29 07:48:11;;;;;;;28.58;4.15;;;;;;;;;;4918757;29;20056;-75
2023/12/29 07:50:37;;;;;;;23.50;3.85;;;;;;;;;;4910142;29;20050;-76
2023/12/29 07:53:04;;;;;;;24.17;3.55;;;;;;;;;;4903253;29;20071;-76
2023/12/29 07:55:30;;;;;;;28.98;4.40;;;9.70;99.90;;;;;;4936245;29;20079;-77
2023/12/29 07:57:56;;;;;;;21.55;3.40;;;;;;;;;;4921893;29;20058;-78
2023/12/29 08:00:23;;;;;;;23.65;3.72;;;;;;;;;;4928936;29;20476;-78
2023/12/29 08:02:50;;;;;;;21.88;3.00;;;;;;;;;;4918498;29;20051;-78
2023/12/29 08:05:16;;;;;;;20.55;4.97;;;;;;;;;;4912585;29;20043;-77
2023/12/29 08:07:43;;;;;;;27.80;3.65;;;;;;;;;;4929059;29;20047;-79
2023/12/29 08:10:09;;;;;;;27.33;4.07;;;;;;;;;;4922539;29;20035;-79
2023/12/29 08:12:38;;;;;;;16.35;3.22;;;;;;;;;;4909453;29;20157;-77
2023/12/29 08:15:05;;;;;;;20.10;3.25;;;;;;;;;;4928654;29;20051;-78
2023/12/29 08:17:31;;;;;;;19.83;3.42;;;;;;;;;;4914950;29;20051;-78
2023/12/29 08:19:57;;;;;;;21.50;3.53;;;;;;;;;;4927212;29;20074;-78
2023/12/29 08:22:23;;;;;;;23.35;3.50;;;;;;;;;;4926126;29;20071;-78
2023/12/29 08:24:49;;;;;;;24.30;4.47;;;;;;;;;;4918910;29;20051;-78
2023/12/29 08:27:23;;;;;;;22.27;4.43;;;;;;;;;;4920214;29;20492;-78
2023/12/29 08:29:49;;;;;;;24.23;5.53;;;;;;;;;;4910775;29;20071;-78
2023/12/29 08:32:15;;;;;;;27.70;3.65;;;;;;;;;;4931560;29;20065;-78
2023/12/29 08:34:41;;;;;;;22.33;4.03;;;;;;;;;;4919569;29;20047;-78
2023/12/29 08:37:10;;;;;;;19.00;3.22;;;;;;;;;;4920692;29;20074;-78
2023/12/29 08:39:36;;;;;;;20.52;3.90;;;;;;;;;;4919405;29;20043;-78
2023/12/29 08:42:02;;;;;;;22.48;3.83;;;;;;;;;;4926257;29;20046;-78
2023/12/29 08:44:28;;;;;;;20.27;3.22;;;;;;;;;;4932442;28;20081;-78
2023/12/29 08:46:54;;;;;;;22.95;4.38;;;;;;;;;;4926829;29;20062;-75
2023/12/29 08:49:21;;;;;;;16.95;2.92;;;;;;;;;;4927952;29;20507;-75
2023/12/29 08:51:47;;;;;;;19.38;3.13;;;;;;;;;;4918543;29;20126;-76
2023/12/29 08:54:13;;;;;;;16.95;3.33;;;;;;;;;;4929899;29;20522;-78
2023/12/29 08:56:39;;;;;;;20.58;3.17;;;;;;;;;;4926603;29;20035;-78
2023/12/29 08:59:06;;;;;;;17.23;3.85;;;;;;;;;;4930384;28;20057;-75
2023/12/29 09:01:33;;;;;;;20.77;3.60;;;;;;;;;;4930531;29;20043;-76
2023/12/29 09:04:00;;;;;;;18.85;3.33;;;;;;;;;;4913675;29;20051;-75
2023/12/29 09:06:26;;;;;;;21.77;3.63;;;;;;;;;;4935721;29;20047;-75
2023/12/29 09:08:52;;;;;;;21.45;3.70;;;;;;;;;;4927457;29;20035;-75
2023/12/29 09:11:18;;;;;;;19.90;2.88;;;;;;;;;;4920029;29;20801;-75
2023/12/29 09:13:44;;;;;;;22.67;3.10;;;;;;;;;;4928420;28;20166;-75
2023/12/29 09:16:10;;;;;;;25.17;3.42;;;;;;;;;;4938237;29;20062;-77
2023/12/29 09:18:36;;;;;;;21.38;3.65;;;;;;;;;;4896243;29;20040;-75
2023/12/29 09:21:03;;;;;;;20.92;3.65;;;;;;;;;;4906343;29;20503;-74
2023/12/29 09:23:29;;;;;;;24.30;4.05;;;;;;;;;;4926775;29;20052;-74
2023/12/29 09:25:55;;;;;;;20.73;3.85;;;;;;;;;;4900613;29;20055;-75
2023/12/29 09:28:21;;;;;;;23.80;4.53;;;;;;;;;;4932231;29;20130;-75
2023/12/29 09:30:47;;;;;;;26.13;4.05;;;;;;;;;;4937371;29;20043;-75
2023/12/29 09:33:13;;;;;;;22.40;3.58;;;;;;;;;;4905636;29;20059;-74
2023/12/29 09:35:40;;;;;;;15.38;3.40;;;;;;;;;;4937822;29;20075;-76
2023/12/29 09:38:06;;;;;;;20.42;3.58;;;;;;;;;;4923878;29;20031;-75
2023/12/29 09:40:32;;;;;;;24.17;4.25;;;;;;;;;;4926600;29;20050;-75
2023/12/29 09:42:59;;;;;;;16.67;4.30;;;;;;;;;;4911004;29;20050;-76
2023/12/29 09:45:26;;;;;;;22.85;3.95;;;;;;;;;;4930084;29;20046;-74
2023/12/29 09:47:55;;;;;;;20.63;4.53;;;;;;;;;;4929095;29;20046;-76
2023/12/29 09:50:22;;;;;;;23.42;4.18;;;;;;;;;;4921821;29;20044;-76
2023/12/29 09:52:52;;;;;;;19.83;3.88;;;;;;;;;;4921255;29;20042;-75
2023/12/29 09:55:20;;;;;;;20.42;4.55;;;;;;;;;;4929297;29;20479;-75
2023/12/29 09:57:48;;;;;;;21.65;3.60;;;;;;;;;;4920101;29;20036;-76
2023/12/29 10:00:16;;;;;;;20.05;4.07;;;;;;;;;;4930950;29;20078;-76
2023/12/29 10:02:42;;;;;;;16.35;3.50;;;;;;;;;;4911975;29;20152;-75
2023/12/29 10:05:09;;;;;;;26.40;4.25;;;;;;;;;;4930754;29;20093;-76
2023/12/29 10:07:38;;;;;;;18.98;3.35;;;;;;;;;;4933152;29;20111;-76
2023/12/29 10:10:06;;;;;;;19.33;4.90;;;;;;;;;;4948568;28;20039;-75
2023/12/29 10:12:32;;;;;;;16.33;3.53;;;;;;;;;;4933269;29;20035;-75
2023/12/29 10:15:06;;;;;;;20.10;3.42;;;;;;;;;;4915087;29;20039;-76
2023/12/29 10:17:36;;;;;;;18.10;3.40;;;;;;;;;;4907732;29;20031;-75
2023/12/29 10:20:25;;;;;;;23.67;4.18;;;;;;;;;;4915132;29;20054;-75
2023/12/29 10:23:06;;;;;;;15.90;3.35;;;;;;;;;;4878360;29;20526;-75
2023/12/29 10:25:33;;;;;;;16.15;3.00;;;;;;;;;;4932279;29;20425;-76
2023/12/29 10:27:59;;;;;;;12.55;3.08;;;;;;;;;;4930513;29;20039;-76
2023/12/29 10:30:25;;;;;;;15.48;3.40;;;;;;;;;;4926181;29;20039;-75
2023/12/29 10:32:52;;;;;;;16.45;3.70;;;;;;;;;;4919408;28;20036;-75
2023/12/29 10:35:19;;;;;;;20.40;3.50;;;;;;;;;;4924010;29;20441;-75
2023/12/29 10:37:45;;;;;;;22.95;4.18;;;;;;;;;;4912482;29;20123;-75
2023/12/29 10:40:18;;;;;;;12.02;2.55;;;;;;;;;;4926647;29;20046;-75
2023/12/29 10:43:05;;;;;;;17.42;3.13;;;;;;;;;;4942467;28;20048;-75
2023/12/29 10:45:31;;;;;;;12.63;2.38;;;;;;;;;;4926213;29;20047;-77
2023/12/29 10:47:57;;;;;;;12.32;2.63;;;;;;;;;;4918240;29;20044;-75
2023/12/29 10:50:23;;;;;;;10.40;2.33;;;;;;;;;;4936657;29;20044;-77
2023/12/29 10:52:49;;;;;;;16.02;3.58;;;;;;;;;;4936252;29;20078;-77
2023/12/29 10:55:15;;;;;;;11.57;2.63;;;;;;;;;;4936411;29;20048;-77
2023/12/29 10:57:42;;;;;;;15.55;3.05;;;;;;;;;;4935063;29;20040;-77
2023/12/29 11:00:08;;;;;;;16.65;3.10;;;;;;;;;;4920213;29;20078;-77
2023/12/29 11:02:35;;;;;;;14.95;2.92;;;;;;;;;;4920944;29;20066;-77
2023/12/29 11:05:08;;;;;;;14.82;3.00;;;;;;;;;;4939009;29;20047;-77
2023/12/29 11:07:35;;;;;;;14.02;3.15;;;;;;;;;;4935603;29;20035;-76
2023/12/29 11:10:05;;;;;;;19.25;4.10;;;;;;;;;;4919501;29;20480;-77
2023/12/29 11:12:35;;;;;;;21.92;4.20;;;;;;;;;;4903915;29;20058;-77
2023/12/29 11:15:02;;;;;;;12.20;2.47;;;;;;;;;;4935259;29;20040;-77
2023/12/29 11:17:30;;;;;;;16.20;2.60;;;;;;;;;;4903784;29;20039;-81
2023/12/29 11:19:57;;;;;;;18.63;3.00;;;;;;;;;;4919173;29;20050;-77
2023/12/29 11:22:25;;;;;;;19.23;3.17;;;;;;;;;;4934902;29;20433;-77
2023/12/29 11:24:51;;;;;;;16.35;3.30;;;;;;;;;;4934339;29;20148;-77
2023/12/29 11:27:17;;;;;;;17.40;3.00;;;;;;;;;;4935401;29;20142;-77
2023/12/29 11:29:43;;;;;;;15.98;5.38;;;;;;;;;;4919344;29;20050;-76
2023/12/29 11:32:17;;;;;;;17.85;3.47;;;;;;;;;;4925923;29;20039;-77
2023/12/29 11:34:45;;;;;;;19.38;3.33;;;;;;;;;;4934359;29;20488;-77
2023/12/29 11:37:30;;;;;;;18.95;2.90;;;;;;;;;;4934984;29;20066;-77
2023/12/29 11:40:12;;;;;;;14.93;2.88;;;;;;;;;;4923181;29;20405;-76
2023/12/29 11:42:40;;;;;;;17.92;3.05;;;;;;;;;;4918859;29;20047;-76
2023/12/29 11:45:26;;;;;;;17.80;3.67;;;;;;;;;;4934844;29;20039;-77
2023/12/29 11:47:53;;;;;;;16.95;3.00;;;;;;;;;;4935780;29;20518;-77
2023/12/29 11:50:33;;;;;;;12.05;2.75;;;;;;;;;;4921597;29;20044;-76
2023/12/29 11:52:59;;;;;;;19.27;3.38;;;;;;;;;;4935683;29;20039;-77
2023/12/29 11:55:36;;;;;;;17.52;3.80;;;;;;;;;;4919972;29;20063;-76
2023/12/29 11:58:04;;;;;;;18.23;3.70;;;;;;;;;;4918885;29;20040;-76
2023/12/29 12:00:44;;;;;;;14.05;3.40;;;;;;;;;;4919332;29;20054;-77
2023/12/29 12:03:16;;;;;;;12.43;2.80;;;;;;;;;;4918465;29;20519;-77
2023/12/29 12:05:46;;;;;;;20.73;3.20;;;;;;;;;;4919782;29;20048;-77
2023/12/29 12:08:26;;;;;;;13.05;2.90;;;;;;;;;;4919416;29;20091;-79
2023/12/29 12:10:52;;;;;;;18.48;3.15;;;;;;;;;;4919329;29;20054;-77
2023/12/29 12:13:37;;;;;;;16.67;3.28;;;;;;;;;;4903118;29;20421;-77
2023/12/29 12:16:03;;;;;;;13.15;2.88;;;;;;;;;;4918599;29;20039;-76
2023/12/29 12:18:30;;;;;;;14.65;2.92;;;;;;;;;;4918704;29;20388;-77
2023/12/29 12:20:57;;;;;;;18.25;3.85;;;;;;;;;;4918546;29;20127;-76
2023/12/29 12:23:24;;;;;;;14.50;2.78;;;;;;;;;;4918057;29;20052;-76
2023/12/29 12:25:50;;;;;;;14.90;3.08;;;;;;;;;;4918546;29;20058;-77
2023/12/29 12:28:17;;;;;;;21.60;4.25;;;;;;;;;;4918786;29;20392;-76
2023/12/29 12:30:43;;;;;;;13.85;3.15;;;;;;;;;;4918363;29;20505;-77
2023/12/29 12:33:13;;;;;;;18.23;3.63;;;;;;;;;;4918548;29;20035;-77
2023/12/29 12:35:39;;;;;;;17.60;3.53;;;;;;;;;;4903632;29;20043;-76
2023/12/29 12:38:10;;;;;;;16.40;3.85;;;;;;;;;;4942053;29;20046;-77
2023/12/29 12:40:38;;;;;;;15.05;3.00;;;;;;;;;;4922127;29;20049;-77
2023/12/29 12:43:04;;;;;;;23.05;4.13;;;;;;;;;;4938893;29;20051;-76
2023/12/29 12:45:33;;;;;;;16.90;3.53;;;;;;;;;;4922076;29;20051;-77
2023/12/29 12:48:03;;;;;;;15.35;4.20;;;;;;;;;;4921513;29;20046;-77
2023/12/29 12:50:29;;;;;;;17.83;3.58;;;;;;;;;;4937392;29;20079;-77
2023/12/29 12:52:57;;;;;;;15.05;2.90;;;;;;;;;;4937472;29;20068;-76
2023/12/29 12:55:23;;;;;;;19.00;4.00;;;;;;;;;;4906804;29;20126;-76
2023/12/29 12:57:50;;;;;;;16.35;3.10;;;;;;;;;;4921848;29;20035;-76
2023/12/29 13:00:16;;;;;;;21.35;4.25;;;;;;;;;;4937267;29;20495;-76
2023/12/29 13:02:45;;;;;;;25.42;3.92;;;;;;;;;;4939603;29;20061;-69
2023/12/29 13:05:11;;;;;;;17.60;3.42;;;;;;;;;;4931322;29;20050;-76
2023/12/29 13:07:37;;;;;;;22.52;3.30;;;;;;;;;;4901702;29;20047;-80
2023/12/29 13:10:03;;;;;;;24.83;3.33;;;;;;;;;;4890320;29;20040;-78
2023/12/29 13:12:30;;;;;;;18.58;2.80;;;;;;;;;;4909111;29;20082;-79
2023/12/29 13:15:08;;;;;;;15.98;3.15;;;;;;;;;;4930159;29;20070;-79
2023/12/29 13:17:34;;;;;;;18.63;2.90;;;;;;;;;;4934208;28;20043;-79
2023/12/29 13:20:00;;;;;;;20.48;3.28;;;;;;;;;;4921224;29;20126;-79
2023/12/29 13:22:29;;;;;;;19.38;4.47;;;;;;;;;;4939653;29;20083;-78
2023/12/29 13:24:55;;;;;;;18.60;2.65;;;;;;;;;;4927816;29;20066;-79
2023/12/29 13:27:22;;;;;;;20.45;5.20;;;;;;;;;;4937338;29;20048;-79
2023/12/29 13:29:49;;;;;;;21.63;4.00;;;;;;;;;;4935952;28;20046;-78
2023/12/29 13:32:28;;;;;;;18.38;3.03;;;;;;;;;;4909145;29;20038;-79
2023/12/29 13:35:17;;;;;;;15.52;2.92;;;;;;;;;;4931555;29;20051;-78
2023/12/29 13:37:46;;;;;;;13.55;2.78;;;;;;;;;;4912990;29;20090;-78
2023/12/29 13:40:22;;;;;;;17.23;2.65;;;;;;;;;;4930647;29;20050;-78
2023/12/29 13:42:49;;;;;;;19.50;3.05;;;;;;;;;;4939470;29;20050;-78
2023/12/29 13:45:16;;;;;;;22.20;2.75;;;;;;;;;;4931087;29;20035;-79
2023/12/29 13:47:42;;;;;;;12.15;3.60;;;;;;;;;;4912491;29;20377;-78
2023/12/29 13:50:11;;;;;;;16.38;2.70;;;;;;;;;;4910527;29;20040;-78
2023/12/29 13:52:38;;;;;;;13.50;2.90;;;;;;;;;;4929975;28;20035;-79
2023/12/29 13:55:04;;;;;;;16.67;3.15;;;;;;;;;;4935575;29;20443;-78
2023/12/29 13:57:37;;;;;;;18.88;3.13;;;;;;;;;;4929478;29;20051;-80
2023/12/29 14:00:03;;;;;;;;;;;;;;;;;;4944641;29;20429;-80
2023/12/29 14:02:32;;;;;;;18.45;3.28;;;;;;;;;;4926195;29;19965;-79
2023/12/29 14:05:23;;;;;;;18.90;3.78;;;9.40;99.90;;;;;;4920744;29;20476;-79
2023/12/29 14:07:54;;;;;;;20.23;4.68;;;;;;;;;;4954085;28;20085;-76
2023/12/29 14:10:20;;;;;;;16.52;2.80;;;;;;;;;;4927598;29;20074;-75
2023/12/29 14:12:46;;;;;;;13.45;2.90;;;;;;;;;;4931503;29;20039;-76
2023/12/29 14:15:12;;;;;;;14.80;2.50;;;;;;;;;;4923921;29;20039;-76
2023/12/29 14:17:39;;;;;;;19.42;3.45;;;;;;;;;;4953039;28;20110;-76
2023/12/29 14:20:07;;;;;;;11.07;2.80;;;;;;;;;;4905460;29;20362;-76
2023/12/29 14:22:34;;;;;;;13.63;2.80;;;;;;;;;;4912779;29;20059;-76
2023/12/29 14:25:05;;;;;;;15.93;3.33;;;;;;;;;;4933083;29;20404;-76
2023/12/29 14:27:31;;;;;;;17.10;2.90;;;;;;;;;;4928845;29;20078;-76